Pablo, MT (59855)

9:17 AM MDT on April 27, 2017 (GMT -0600)
Monte's Place Davis | | Change Station

Elev 3130 ft 47.61 °N, 114.10 °W | Updated 3 seconds ago

Snow
Snow
38.8 °F
Feels Like 39 °F
N
0.0
Wind Variable Wind from South
Gusts 2.0 mph

Today
High -- | Low -- °F
--% Chance of Precip.
Yesterday
High -- | Low -- °F
Precip. -- in
Pressure 29.83 in
Visibility 10.0 miles
Clouds Overcast 4700 ft
Windchill 39 °F
Dew Point 35 °F
Humidity 86%
Rainfall 0.27 in
Snow Depth Not available.
6:25 AM 8:43 PM
New Moon, 2% visible
METAR KMSO 271453Z 21003KT 10SM OVC047 05/02 A2980 RMK AO2 SLP100 T00500017 53015
Pressure 29.83 in
Visibility 10.0 miles
Clouds Overcast 4700 ft
Windchill 39 °F
Dew Point 35 °F
Humidity 86%
Rainfall 0.27 in
Snow Depth Not available.
6:25 AM 8:43 PM
New Moon, 2% visible
METAR KMSO 271453Z 21003KT 10SM OVC047 05/02 A2980 RMK AO2 SLP100 T00500017 53015

Get Severe Weather Alerts

Thanks for signing up!

Be on the lookout for a verification email in your inbox.

You'll start receiving the daily forecast at 8 AM.

×

10-Day Weather Forecast

Almanac

Astronomy

Apr. 27, 2017 Rise Set
Actual Time
Civil Twilight
Nautical Twilight
Astronomical Twilight
Moon
Length of Visible Light
Length of Day
Tomorrow will be .
, % of the Moon is Illuminated

Today's Extremes

State Highs State Lows

Community

WunderPhotos

WunderBlog® & News

Nearby

Air Quality

  Air Quality AQ Index Pollutant
Not available.

Snow Depth

Station Depth Elevation

Earthquake Activity

City Distance Mag. Time & Date
Minimum magnitude displayed is 2.5.

Coastal Water Temperatures

Place Temperature

Stations

Nearby Weather Stations

Station Location Temp. Windchill Dew Point Humidity Wind Precip. Elev Updated Type
                   

Watches & Warnings

There are currently no watches in effect.